sensor_id;sensor_type;location;lat;lon;timestamp;P1;durP1;ratioP1;P2;durP2;ratioP2
56736;SDS011;42618;51.226;4.910;2023-03-12T00:01:59;7.32;;;3.15;;
56736;SDS011;42618;51.226;4.910;2023-03-12T00:04:26;6.20;;;3.00;;
56736;SDS011;42618;51.226;4.910;2023-03-12T00:06:53;9.77;;;3.50;;
56736;SDS011;42618;51.226;4.910;2023-03-12T00:09:19;9.88;;;3.10;;
56736;SDS011;42618;51.226;4.910;2023-03-12T00:11:46;8.20;;;3.15;;
56736;SDS011;42618;51.226;4.910;2023-03-12T00:14:12;9.75;;;3.40;;
56736;SDS011;42618;51.226;4.910;2023-03-12T00:16:39;6.65;;;2.85;;
56736;SDS011;42618;51.226;4.910;2023-03-12T00:19:06;8.68;;;3.10;;
56736;SDS011;42618;51.226;4.910;2023-03-12T00:21:32;11.57;;;3.55;;
56736;SDS011;42618;51.226;4.910;2023-03-12T00:23:59;10.45;;;3.97;;
56736;SDS011;42618;51.226;4.910;2023-03-12T00:26:26;7.82;;;3.22;;
56736;SDS011;42618;51.226;4.910;2023-03-12T00:28:52;5.18;;;2.95;;
56736;SDS011;42618;51.226;4.910;2023-03-12T00:31:26;7.53;;;2.90;;
56736;SDS011;42618;51.226;4.910;2023-03-12T00:33:53;7.95;;;3.70;;
56736;SDS011;42618;51.226;4.910;2023-03-12T00:36:21;6.77;;;3.20;;
56736;SDS011;42618;51.226;4.910;2023-03-12T00:38:50;10.55;;;3.20;;
56736;SDS011;42618;51.226;4.910;2023-03-12T00:41:17;7.72;;;3.60;;
56736;SDS011;42618;51.226;4.910;2023-03-12T00:43:45;7.03;;;3.50;;
56736;SDS011;42618;51.226;4.910;2023-03-12T00:46:12;6.50;;;3.53;;
56736;SDS011;42618;51.226;4.910;2023-03-12T00:48:39;7.78;;;3.50;;
56736;SDS011;42618;51.226;4.910;2023-03-12T00:51:05;10.15;;;3.88;;
56736;SDS011;42618;51.226;4.910;2023-03-12T00:53:32;6.30;;;3.60;;
56736;SDS011;42618;51.226;4.910;2023-03-12T00:55:59;13.05;;;4.10;;
56736;SDS011;42618;51.226;4.910;2023-03-12T00:58:25;9.05;;;4.20;;
56736;SDS011;42618;51.226;4.910;2023-03-12T01:00:52;8.82;;;3.90;;
56736;SDS011;42618;51.226;4.910;2023-03-12T01:03:18;9.65;;;3.65;;
56736;SDS011;42618;51.226;4.910;2023-03-12T01:05:45;8.80;;;3.50;;
56736;SDS011;42618;51.226;4.910;2023-03-12T01:08:12;9.02;;;3.60;;
56736;SDS011;42618;51.226;4.910;2023-03-12T01:10:40;7.97;;;2.80;;
56736;SDS011;42618;51.226;4.910;2023-03-12T01:13:07;7.97;;;3.13;;
56736;SDS011;42618;51.226;4.910;2023-03-12T01:15:34;7.60;;;3.33;;
56736;SDS011;42618;51.226;4.910;2023-03-12T01:18:01;4.20;;;2.70;;
56736;SDS011;42618;51.226;4.910;2023-03-12T01:20:27;7.07;;;2.88;;
56736;SDS011;42618;51.226;4.910;2023-03-12T01:22:54;9.93;;;3.42;;
56736;SDS011;42618;51.226;4.910;2023-03-12T01:25:21;11.10;;;3.63;;
56736;SDS011;42618;51.226;4.910;2023-03-12T01:27:47;7.18;;;3.25;;
56736;SDS011;42618;51.226;4.910;2023-03-12T01:30:14;6.63;;;3.35;;
56736;SDS011;42618;51.226;4.910;2023-03-12T01:32:40;8.02;;;3.10;;
56736;SDS011;42618;51.226;4.910;2023-03-12T01:35:07;8.32;;;3.45;;
56736;SDS011;42618;51.226;4.910;2023-03-12T01:37:34;9.13;;;3.35;;
56736;SDS011;42618;51.226;4.910;2023-03-12T01:40:01;9.20;;;3.67;;
56736;SDS011;42618;51.226;4.910;2023-03-12T01:42:27;8.70;;;3.05;;
56736;SDS011;42618;51.226;4.910;2023-03-12T01:44:56;10.93;;;4.00;;
56736;SDS011;42618;51.226;4.910;2023-03-12T01:47:23;5.10;;;2.67;;
56736;SDS011;42618;51.226;4.910;2023-03-12T01:49:51;7.75;;;2.95;;
56736;SDS011;42618;51.226;4.910;2023-03-12T01:52:19;12.40;;;3.75;;
56736;SDS011;42618;51.226;4.910;2023-03-12T01:54:56;8.75;;;2.75;;
56736;SDS011;42618;51.226;4.910;2023-03-12T01:57:47;8.10;;;3.42;;
56736;SDS011;42618;51.226;4.910;2023-03-12T02:00:14;9.05;;;3.08;;
56736;SDS011;42618;51.226;4.910;2023-03-12T02:02:41;9.10;;;3.15;;
56736;SDS011;42618;51.226;4.910;2023-03-12T02:05:18;7.78;;;2.97;;
56736;SDS011;42618;51.226;4.910;2023-03-12T02:07:47;10.50;;;3.75;;
56736;SDS011;42618;51.226;4.910;2023-03-12T02:10:14;8.25;;;3.15;;
56736;SDS011;42618;51.226;4.910;2023-03-12T02:12:41;9.10;;;3.97;;
56736;SDS011;42618;51.226;4.910;2023-03-12T02:15:09;7.88;;;3.20;;
56736;SDS011;42618;51.226;4.910;2023-03-12T02:17:37;10.40;;;3.50;;
56736;SDS011;42618;51.226;4.910;2023-03-12T02:20:14;9.90;;;3.70;;
56736;SDS011;42618;51.226;4.910;2023-03-12T02:22:43;8.65;;;3.88;;
56736;SDS011;42618;51.226;4.910;2023-03-12T02:27:41;9.35;;;3.58;;
56736;SDS011;42618;51.226;4.910;2023-03-12T02:30:09;5.95;;;3.10;;
56736;SDS011;42618;51.226;4.910;2023-03-12T02:32:37;9.05;;;3.10;;
56736;SDS011;42618;51.226;4.910;2023-03-12T02:35:05;5.60;;;3.15;;
56736;SDS011;42618;51.226;4.910;2023-03-12T02:37:31;6.88;;;3.08;;
56736;SDS011;42618;51.226;4.910;2023-03-12T02:40:09;7.95;;;3.00;;
56736;SDS011;42618;51.226;4.910;2023-03-12T02:42:38;4.70;;;2.55;;
56736;SDS011;42618;51.226;4.910;2023-03-12T02:45:05;7.90;;;3.08;;
56736;SDS011;42618;51.226;4.910;2023-03-12T02:47:32;14.55;;;2.83;;
56736;SDS011;42618;51.226;4.910;2023-03-12T02:49:59;7.53;;;3.20;;
56736;SDS011;42618;51.226;4.910;2023-03-12T02:52:25;10.45;;;3.03;;
56736;SDS011;42618;51.226;4.910;2023-03-12T02:54:52;11.35;;;2.92;;
56736;SDS011;42618;51.226;4.910;2023-03-12T02:57:19;10.88;;;3.50;;
56736;SDS011;42618;51.226;4.910;2023-03-12T02:59:45;8.75;;;3.55;;
56736;SDS011;42618;51.226;4.910;2023-03-12T03:02:12;2.75;;;2.03;;
56736;SDS011;42618;51.226;4.910;2023-03-12T03:04:39;7.57;;;3.07;;
56736;SDS011;42618;51.226;4.910;2023-03-12T03:07:05;9.50;;;3.05;;
56736;SDS011;42618;51.226;4.910;2023-03-12T03:09:32;5.45;;;2.13;;
56736;SDS011;42618;51.226;4.910;2023-03-12T03:11:59;7.00;;;3.05;;
56736;SDS011;42618;51.226;4.910;2023-03-12T03:14:28;5.43;;;2.17;;
56736;SDS011;42618;51.226;4.910;2023-03-12T03:16:55;2.85;;;1.52;;
56736;SDS011;42618;51.226;4.910;2023-03-12T03:19:21;13.10;;;3.15;;
56736;SDS011;42618;51.226;4.910;2023-03-12T03:21:48;4.60;;;1.90;;
56736;SDS011;42618;51.226;4.910;2023-03-12T03:24:15;6.60;;;2.38;;
56736;SDS011;42618;51.226;4.910;2023-03-12T03:26:42;8.32;;;2.83;;
56736;SDS011;42618;51.226;4.910;2023-03-12T03:29:09;7.82;;;2.53;;
56736;SDS011;42618;51.226;4.910;2023-03-12T03:31:36;8.02;;;2.50;;
56736;SDS011;42618;51.226;4.910;2023-03-12T03:34:02;6.05;;;2.67;;
56736;SDS011;42618;51.226;4.910;2023-03-12T03:36:29;15.15;;;3.28;;
56736;SDS011;42618;51.226;4.910;2023-03-12T03:39:03;2.97;;;2.05;;
56736;SDS011;42618;51.226;4.910;2023-03-12T03:41:30;8.23;;;2.75;;
56736;SDS011;42618;51.226;4.910;2023-03-12T03:43:58;3.90;;;2.08;;
56736;SDS011;42618;51.226;4.910;2023-03-12T03:46:27;7.75;;;2.25;;
56736;SDS011;42618;51.226;4.910;2023-03-12T03:48:59;7.25;;;2.05;;
56736;SDS011;42618;51.226;4.910;2023-03-12T03:51:27;5.82;;;2.00;;
56736;SDS011;42618;51.226;4.910;2023-03-12T03:53:58;5.85;;;2.53;;
56736;SDS011;42618;51.226;4.910;2023-03-12T03:56:28;7.25;;;2.90;;
56736;SDS011;42618;51.226;4.910;2023-03-12T03:58:57;8.63;;;2.33;;
56736;SDS011;42618;51.226;4.910;2023-03-12T04:01:24;5.20;;;2.65;;
56736;SDS011;42618;51.226;4.910;2023-03-12T04:03:53;13.05;;;2.67;;
56736;SDS011;42618;51.226;4.910;2023-03-12T04:06:19;9.27;;;2.75;;
56736;SDS011;42618;51.226;4.910;2023-03-12T04:08:46;4.50;;;1.65;;
56736;SDS011;42618;51.226;4.910;2023-03-12T04:11:17;5.57;;;2.50;;
56736;SDS011;42618;51.226;4.910;2023-03-12T04:13:44;4.75;;;2.22;;
56736;SDS011;42618;51.226;4.910;2023-03-12T04:16:13;6.72;;;2.38;;
56736;SDS011;42618;51.226;4.910;2023-03-12T04:18:40;6.05;;;2.60;;
56736;SDS011;42618;51.226;4.910;2023-03-12T04:21:07;4.23;;;1.80;;
56736;SDS011;42618;51.226;4.910;2023-03-12T04:23:35;12.57;;;2.65;;
56736;SDS011;42618;51.226;4.910;2023-03-12T04:26:02;6.28;;;2.33;;
56736;SDS011;42618;51.226;4.910;2023-03-12T04:28:29;8.95;;;2.83;;
56736;SDS011;42618;51.226;4.910;2023-03-12T04:30:56;5.05;;;2.20;;
56736;SDS011;42618;51.226;4.910;2023-03-12T04:33:30;5.80;;;2.35;;
56736;SDS011;42618;51.226;4.910;2023-03-12T04:35:58;8.23;;;2.42;;
56736;SDS011;42618;51.226;4.910;2023-03-12T04:38:25;3.67;;;1.88;;
56736;SDS011;42618;51.226;4.910;2023-03-12T04:41:00;8.15;;;2.13;;
56736;SDS011;42618;51.226;4.910;2023-03-12T04:43:28;6.45;;;2.70;;
56736;SDS011;42618;51.226;4.910;2023-03-12T04:45:55;11.73;;;2.70;;
56736;SDS011;42618;51.226;4.910;2023-03-12T04:48:22;6.15;;;2.78;;
56736;SDS011;42618;51.226;4.910;2023-03-12T04:50:50;16.02;;;2.50;;
56736;SDS011;42618;51.226;4.910;2023-03-12T04:53:17;7.63;;;2.72;;
56736;SDS011;42618;51.226;4.910;2023-03-12T04:55:45;9.50;;;2.45;;
56736;SDS011;42618;51.226;4.910;2023-03-12T05:00:40;7.60;;;3.50;;
56736;SDS011;42618;51.226;4.910;2023-03-12T05:03:07;6.72;;;2.03;;
56736;SDS011;42618;51.226;4.910;2023-03-12T05:05:34;4.82;;;2.17;;
56736;SDS011;42618;51.226;4.910;2023-03-12T05:08:02;6.45;;;2.00;;
56736;SDS011;42618;51.226;4.910;2023-03-12T05:10:30;7.28;;;2.55;;
56736;SDS011;42618;51.226;4.910;2023-03-12T05:12:57;8.13;;;2.47;;
56736;SDS011;42618;51.226;4.910;2023-03-12T05:15:24;7.05;;;2.50;;
56736;SDS011;42618;51.226;4.910;2023-03-12T05:17:51;5.95;;;2.55;;
56736;SDS011;42618;51.226;4.910;2023-03-12T05:20:20;6.35;;;2.50;;
56736;SDS011;42618;51.226;4.910;2023-03-12T05:22:47;7.47;;;3.03;;
56736;SDS011;42618;51.226;4.910;2023-03-12T05:25:14;4.85;;;2.30;;
56736;SDS011;42618;51.226;4.910;2023-03-12T05:27:41;11.07;;;3.10;;
56736;SDS011;42618;51.226;4.910;2023-03-12T05:30:08;7.07;;;2.88;;
56736;SDS011;42618;51.226;4.910;2023-03-12T05:32:36;11.05;;;2.55;;
56736;SDS011;42618;51.226;4.910;2023-03-12T05:35:03;5.93;;;2.63;;
56736;SDS011;42618;51.226;4.910;2023-03-12T05:37:30;5.97;;;2.30;;
56736;SDS011;42618;51.226;4.910;2023-03-12T05:39:58;6.35;;;3.20;;
56736;SDS011;42618;51.226;4.910;2023-03-12T05:44:53;7.82;;;2.70;;
56736;SDS011;42618;51.226;4.910;2023-03-12T05:47:21;6.13;;;3.05;;
56736;SDS011;42618;51.226;4.910;2023-03-12T05:49:48;10.73;;;2.95;;
56736;SDS011;42618;51.226;4.910;2023-03-12T05:52:14;6.43;;;2.75;;
56736;SDS011;42618;51.226;4.910;2023-03-12T05:54:42;3.58;;;2.15;;
56736;SDS011;42618;51.226;4.910;2023-03-12T05:57:09;3.35;;;1.58;;
56736;SDS011;42618;51.226;4.910;2023-03-12T05:59:35;7.90;;;2.78;;
56736;SDS011;42618;51.226;4.910;2023-03-12T06:02:03;7.78;;;2.97;;
56736;SDS011;42618;51.226;4.910;2023-03-12T06:04:31;8.00;;;2.70;;
56736;SDS011;42618;51.226;4.910;2023-03-12T06:06:59;6.72;;;2.97;;
56736;SDS011;42618;51.226;4.910;2023-03-12T06:09:26;8.13;;;2.97;;
56736;SDS011;42618;51.226;4.910;2023-03-12T06:11:56;7.97;;;2.50;;
56736;SDS011;42618;51.226;4.910;2023-03-12T06:14:23;11.60;;;3.75;;
56736;SDS011;42618;51.226;4.910;2023-03-12T06:16:49;2.75;;;1.50;;
56736;SDS011;42618;51.226;4.910;2023-03-12T06:19:16;6.53;;;2.63;;
56736;SDS011;42618;51.226;4.910;2023-03-12T06:21:46;9.25;;;3.40;;
56736;SDS011;42618;51.226;4.910;2023-03-12T06:24:13;9.00;;;3.40;;
56736;SDS011;42618;51.226;4.910;2023-03-12T06:29:27;6.55;;;2.63;;
56736;SDS011;42618;51.226;4.910;2023-03-12T06:31:53;11.13;;;3.38;;
56736;SDS011;42618;51.226;4.910;2023-03-12T06:34:21;8.45;;;3.00;;
56736;SDS011;42618;51.226;4.910;2023-03-12T06:36:48;7.32;;;2.90;;
56736;SDS011;42618;51.226;4.910;2023-03-12T06:39:14;7.03;;;2.50;;
56736;SDS011;42618;51.226;4.910;2023-03-12T06:41:41;8.02;;;3.15;;
56736;SDS011;42618;51.226;4.910;2023-03-12T06:44:07;7.45;;;2.65;;
56736;SDS011;42618;51.226;4.910;2023-03-12T06:46:34;8.35;;;4.00;;
56736;SDS011;42618;51.226;4.910;2023-03-12T06:49:02;6.18;;;3.05;;
56736;SDS011;42618;51.226;4.910;2023-03-12T06:51:29;11.63;;;4.00;;
56736;SDS011;42618;51.226;4.910;2023-03-12T06:53:55;9.00;;;4.47;;
56736;SDS011;42618;51.226;4.910;2023-03-12T06:56:22;10.45;;;4.25;;
56736;SDS011;42618;51.226;4.910;2023-03-12T06:58:49;9.32;;;4.80;;
56736;SDS011;42618;51.226;4.910;2023-03-12T07:01:15;8.55;;;3.78;;
56736;SDS011;42618;51.226;4.910;2023-03-12T07:03:42;4.97;;;3.22;;
56736;SDS011;42618;51.226;4.910;2023-03-12T07:06:15;7.80;;;4.38;;
56736;SDS011;42618;51.226;4.910;2023-03-12T07:08:43;6.10;;;3.33;;
56736;SDS011;42618;51.226;4.910;2023-03-12T07:11:09;11.80;;;6.18;;
56736;SDS011;42618;51.226;4.910;2023-03-12T07:13:36;10.20;;;5.15;;
56736;SDS011;42618;51.226;4.910;2023-03-12T07:16:03;8.50;;;4.47;;
56736;SDS011;42618;51.226;4.910;2023-03-12T07:18:30;11.25;;;5.20;;
56736;SDS011;42618;51.226;4.910;2023-03-12T07:20:56;10.88;;;4.75;;
56736;SDS011;42618;51.226;4.910;2023-03-12T07:23:23;8.13;;;4.03;;
56736;SDS011;42618;51.226;4.910;2023-03-12T07:25:50;13.10;;;5.10;;
56736;SDS011;42618;51.226;4.910;2023-03-12T07:28:17;11.40;;;6.47;;
56736;SDS011;42618;51.226;4.910;2023-03-12T07:30:43;8.47;;;4.87;;
56736;SDS011;42618;51.226;4.910;2023-03-12T07:33:19;10.32;;;5.82;;
56736;SDS011;42618;51.226;4.910;2023-03-12T07:35:46;16.60;;;5.78;;
56736;SDS011;42618;51.226;4.910;2023-03-12T07:38:17;9.23;;;5.03;;
56736;SDS011;42618;51.226;4.910;2023-03-12T07:40:44;11.38;;;4.93;;
56736;SDS011;42618;51.226;4.910;2023-03-12T07:43:10;11.02;;;6.13;;
56736;SDS011;42618;51.226;4.910;2023-03-12T07:45:39;26.60;;;11.88;;
56736;SDS011;42618;51.226;4.910;2023-03-12T07:48:06;9.75;;;5.70;;
56736;SDS011;42618;51.226;4.910;2023-03-12T07:50:33;19.40;;;11.52;;
56736;SDS011;42618;51.226;4.910;2023-03-12T07:53:00;13.23;;;7.35;;
56736;SDS011;42618;51.226;4.910;2023-03-12T07:55:27;17.58;;;9.52;;
56736;SDS011;42618;51.226;4.910;2023-03-12T07:57:53;11.57;;;6.32;;
56736;SDS011;42618;51.226;4.910;2023-03-12T08:00:24;12.30;;;7.57;;
56736;SDS011;42618;51.226;4.910;2023-03-12T08:02:50;14.48;;;7.45;;
56736;SDS011;42618;51.226;4.910;2023-03-12T08:05:18;11.73;;;5.27;;
56736;SDS011;42618;51.226;4.910;2023-03-12T08:07:44;14.23;;;6.97;;
56736;SDS011;42618;51.226;4.910;2023-03-12T08:10:11;16.95;;;8.73;;
56736;SDS011;42618;51.226;4.910;2023-03-12T08:12:38;18.95;;;8.10;;
56736;SDS011;42618;51.226;4.910;2023-03-12T08:15:05;26.33;;;11.88;;
56736;SDS011;42618;51.226;4.910;2023-03-12T08:17:33;24.05;;;12.20;;
56736;SDS011;42618;51.226;4.910;2023-03-12T08:20:00;20.97;;;10.10;;
56736;SDS011;42618;51.226;4.910;2023-03-12T08:22:27;21.58;;;10.73;;
56736;SDS011;42618;51.226;4.910;2023-03-12T08:24:53;18.90;;;8.68;;
56736;SDS011;42618;51.226;4.910;2023-03-12T08:27:20;24.02;;;10.77;;
56736;SDS011;42618;51.226;4.910;2023-03-12T08:29:47;21.30;;;10.00;;
56736;SDS011;42618;51.226;4.910;2023-03-12T08:32:13;27.42;;;12.32;;
56736;SDS011;42618;51.226;4.910;2023-03-12T08:34:40;31.08;;;12.25;;
56736;SDS011;42618;51.226;4.910;2023-03-12T08:37:06;26.67;;;10.32;;
56736;SDS011;42618;51.226;4.910;2023-03-12T08:39:33;27.27;;;11.40;;
56736;SDS011;42618;51.226;4.910;2023-03-12T08:42:00;30.83;;;12.50;;
56736;SDS011;42618;51.226;4.910;2023-03-12T08:44:27;31.63;;;12.07;;
56736;SDS011;42618;51.226;4.910;2023-03-12T08:46:53;37.92;;;14.35;;
56736;SDS011;42618;51.226;4.910;2023-03-12T08:49:20;25.88;;;10.80;;
56736;SDS011;42618;51.226;4.910;2023-03-12T08:51:48;35.10;;;12.48;;
56736;SDS011;42618;51.226;4.910;2023-03-12T08:54:14;33.92;;;13.45;;
56736;SDS011;42618;51.226;4.910;2023-03-12T08:56:41;37.65;;;12.13;;
56736;SDS011;42618;51.226;4.910;2023-03-12T08:59:09;34.03;;;14.18;;
56736;SDS011;42618;51.226;4.910;2023-03-12T09:01:36;33.78;;;14.43;;
56736;SDS011;42618;51.226;4.910;2023-03-12T09:04:03;27.73;;;11.57;;
56736;SDS011;42618;51.226;4.910;2023-03-12T09:06:30;41.43;;;14.87;;
56736;SDS011;42618;51.226;4.910;2023-03-12T09:08:57;47.35;;;13.75;;
56736;SDS011;42618;51.226;4.910;2023-03-12T09:11:25;37.92;;;13.63;;
56736;SDS011;42618;51.226;4.910;2023-03-12T09:13:51;32.25;;;12.15;;
56736;SDS011;42618;51.226;4.910;2023-03-12T09:16:38;48.08;;;14.73;;
56736;SDS011;42618;51.226;4.910;2023-03-12T09:19:04;40.88;;;10.90;;
56736;SDS011;42618;51.226;4.910;2023-03-12T09:21:31;41.60;;;15.65;;
56736;SDS011;42618;51.226;4.910;2023-03-12T09:23:58;49.28;;;14.88;;
56736;SDS011;42618;51.226;4.910;2023-03-12T09:26:24;37.13;;;15.93;;
56736;SDS011;42618;51.226;4.910;2023-03-12T09:28:51;39.00;;;12.02;;
56736;SDS011;42618;51.226;4.910;2023-03-12T09:31:18;38.85;;;12.40;;
56736;SDS011;42618;51.226;4.910;2023-03-12T09:33:44;37.15;;;11.93;;
56736;SDS011;42618;51.226;4.910;2023-03-12T09:36:11;40.10;;;13.82;;
56736;SDS011;42618;51.226;4.910;2023-03-12T09:38:38;36.58;;;10.77;;
56736;SDS011;42618;51.226;4.910;2023-03-12T09:41:05;51.95;;;14.60;;
56736;SDS011;42618;51.226;4.910;2023-03-12T09:43:39;37.38;;;12.30;;
56736;SDS011;42618;51.226;4.910;2023-03-12T09:46:49;32.35;;;10.98;;
56736;SDS011;42618;51.226;4.910;2023-03-12T09:48:56;33.70;;;11.52;;
56736;SDS011;42618;51.226;4.910;2023-03-12T09:51:29;31.13;;;9.43;;
56736;SDS011;42618;51.226;4.910;2023-03-12T09:53:59;45.88;;;11.57;;
56736;SDS011;42618;51.226;4.910;2023-03-12T09:56:28;27.00;;;8.15;;
56736;SDS011;42618;51.226;4.910;2023-03-12T09:58:55;35.75;;;9.70;;
56736;SDS011;42618;51.226;4.910;2023-03-12T10:01:36;39.63;;;10.82;;
56736;SDS011;42618;51.226;4.910;2023-03-12T10:11:59;39.47;;;9.05;;
56736;SDS011;42618;51.226;4.910;2023-03-12T10:24:56;30.55;;;7.80;;
56736;SDS011;42618;51.226;4.910;2023-03-12T10:27:27;35.72;;;7.20;;
56736;SDS011;42618;51.226;4.910;2023-03-12T10:29:54;39.17;;;7.88;;
56736;SDS011;42618;51.226;4.910;2023-03-12T10:32:24;25.15;;;5.72;;
56736;SDS011;42618;51.226;4.910;2023-03-12T10:34:54;24.73;;;6.10;;
56736;SDS011;42618;51.226;4.910;2023-03-12T10:39:48;21.08;;;4.90;;
56736;SDS011;42618;51.226;4.910;2023-03-12T10:42:19;27.42;;;5.88;;
56736;SDS011;42618;51.226;4.910;2023-03-12T10:44:47;29.23;;;5.03;;
56736;SDS011;42618;51.226;4.910;2023-03-12T10:52:38;26.00;;;6.90;;
56736;SDS011;42618;51.226;4.910;2023-03-12T10:55:10;32.15;;;6.32;;
56736;SDS011;42618;51.226;4.910;2023-03-12T10:57:38;21.98;;;6.78;;
56736;SDS011;42618;51.226;4.910;2023-03-12T11:00:06;26.27;;;4.72;;
56736;SDS011;42618;51.226;4.910;2023-03-12T11:02:39;31.10;;;8.10;;
56736;SDS011;42618;51.226;4.910;2023-03-12T11:05:26;29.90;;;9.05;;
56736;SDS011;42618;51.226;4.910;2023-03-12T11:07:54;30.77;;;5.77;;
56736;SDS011;42618;51.226;4.910;2023-03-12T11:10:46;32.00;;;5.35;;
56736;SDS011;42618;51.226;4.910;2023-03-12T11:15:57;35.38;;;6.40;;
56736;SDS011;42618;51.226;4.910;2023-03-12T11:20:52;23.50;;;5.72;;
56736;SDS011;42618;51.226;4.910;2023-03-12T11:25:53;26.42;;;5.13;;
56736;SDS011;42618;51.226;4.910;2023-03-12T11:28:26;24.05;;;5.65;;
56736;SDS011;42618;51.226;4.910;2023-03-12T11:30:55;31.85;;;5.32;;
56736;SDS011;42618;51.226;4.910;2023-03-12T11:33:22;27.88;;;2.97;;
56736;SDS011;42618;51.226;4.910;2023-03-12T11:35:57;32.85;;;7.13;;
56736;SDS011;42618;51.226;4.910;2023-03-12T11:38:30;141.88;;;28.75;;
56736;SDS011;42618;51.226;4.910;2023-03-12T11:56:55;23.77;;;3.58;;
56736;SDS011;42618;51.226;4.910;2023-03-12T12:01:54;22.75;;;2.17;;
56736;SDS011;42618;51.226;4.910;2023-03-12T12:06:52;20.27;;;3.40;;
56736;SDS011;42618;51.226;4.910;2023-03-12T12:09:35;18.92;;;3.03;;
56736;SDS011;42618;51.226;4.910;2023-03-12T12:12:18;26.33;;;3.25;;
56736;SDS011;42618;51.226;4.910;2023-03-12T12:17:17;20.70;;;3.28;;
56736;SDS011;42618;51.226;4.910;2023-03-12T12:22:21;20.92;;;2.90;;
56736;SDS011;42618;51.226;4.910;2023-03-12T12:27:29;20.80;;;3.38;;
56736;SDS011;42618;51.226;4.910;2023-03-12T12:38:33;27.00;;;3.25;;
56736;SDS011;42618;51.226;4.910;2023-03-12T12:43:31;23.45;;;3.25;;
56736;SDS011;42618;51.226;4.910;2023-03-12T12:46:22;24.08;;;4.65;;
56736;SDS011;42618;51.226;4.910;2023-03-12T12:51:18;10.18;;;1.60;;
56736;SDS011;42618;51.226;4.910;2023-03-12T12:53:59;17.10;;;2.92;;
56736;SDS011;42618;51.226;4.910;2023-03-12T12:59:05;21.52;;;2.85;;
56736;SDS011;42618;51.226;4.910;2023-03-12T13:01:34;23.88;;;2.95;;
56736;SDS011;42618;51.226;4.910;2023-03-12T13:04:12;19.05;;;2.70;;
56736;SDS011;42618;51.226;4.910;2023-03-12T13:07:27;19.30;;;2.80;;
56736;SDS011;42618;51.226;4.910;2023-03-12T13:09:36;18.90;;;3.22;;
56736;SDS011;42618;51.226;4.910;2023-03-12T13:14:39;19.38;;;2.88;;
56736;SDS011;42618;51.226;4.910;2023-03-12T13:17:29;26.02;;;3.10;;
56736;SDS011;42618;51.226;4.910;2023-03-12T13:19:58;27.42;;;3.08;;
56736;SDS011;42618;51.226;4.910;2023-03-12T13:22:36;26.25;;;2.83;;
56736;SDS011;42618;51.226;4.910;2023-03-12T13:27:38;36.20;;;2.95;;
56736;SDS011;42618;51.226;4.910;2023-03-12T13:43:30;26.27;;;2.70;;
56736;SDS011;42618;51.226;4.910;2023-03-12T13:48:14;18.73;;;1.83;;
56736;SDS011;42618;51.226;4.910;2023-03-12T13:50:47;28.08;;;3.28;;
56736;SDS011;42618;51.226;4.910;2023-03-12T13:53:23;28.35;;;2.85;;
56736;SDS011;42618;51.226;4.910;2023-03-12T13:56:10;17.38;;;2.75;;
56736;SDS011;42618;51.226;4.910;2023-03-12T13:58:44;18.45;;;2.92;;
56736;SDS011;42618;51.226;4.910;2023-03-12T14:01:14;15.50;;;1.83;;
56736;SDS011;42618;51.226;4.910;2023-03-12T14:03:44;14.43;;;2.00;;
56736;SDS011;42618;51.226;4.910;2023-03-12T14:06:18;21.83;;;2.15;;
56736;SDS011;42618;51.226;4.910;2023-03-12T14:13:45;21.90;;;2.88;;
56736;SDS011;42618;51.226;4.910;2023-03-12T14:18:46;20.15;;;2.30;;
56736;SDS011;42618;51.226;4.910;2023-03-12T14:21:15;19.38;;;3.25;;
56736;SDS011;42618;51.226;4.910;2023-03-12T14:26:11;20.75;;;2.40;;
56736;SDS011;42618;51.226;4.910;2023-03-12T14:28:51;27.40;;;3.80;;
56736;SDS011;42618;51.226;4.910;2023-03-12T14:31:20;16.70;;;2.70;;
56736;SDS011;42618;51.226;4.910;2023-03-12T14:36:19;16.83;;;2.20;;
56736;SDS011;42618;51.226;4.910;2023-03-12T14:38:47;13.82;;;1.77;;
56736;SDS011;42618;51.226;4.910;2023-03-12T14:41:21;20.27;;;2.03;;
56736;SDS011;42618;51.226;4.910;2023-03-12T14:43:50;13.05;;;1.73;;
56736;SDS011;42618;51.226;4.910;2023-03-12T14:46:18;23.95;;;2.85;;
56736;SDS011;42618;51.226;4.910;2023-03-12T14:51:25;14.23;;;1.98;;
56736;SDS011;42618;51.226;4.910;2023-03-12T14:53:52;27.77;;;3.03;;
56736;SDS011;42618;51.226;4.910;2023-03-12T14:56:24;17.23;;;2.58;;
56736;SDS011;42618;51.226;4.910;2023-03-12T14:58:55;15.50;;;1.73;;
56736;SDS011;42618;51.226;4.910;2023-03-12T15:01:23;20.63;;;2.05;;
56736;SDS011;42618;51.226;4.910;2023-03-12T15:03:52;15.57;;;2.65;;
56736;SDS011;42618;51.226;4.910;2023-03-12T15:08:46;23.17;;;2.88;;
56736;SDS011;42618;51.226;4.910;2023-03-12T15:11:18;26.88;;;2.55;;
56736;SDS011;42618;51.226;4.910;2023-03-12T15:13:45;22.85;;;2.63;;
56736;SDS011;42618;51.226;4.910;2023-03-12T15:16:12;14.90;;;1.80;;
56736;SDS011;42618;51.226;4.910;2023-03-12T15:18:39;16.13;;;2.22;;
56736;SDS011;42618;51.226;4.910;2023-03-12T15:21:06;16.95;;;1.92;;
56736;SDS011;42618;51.226;4.910;2023-03-12T15:23:33;23.23;;;2.78;;
56736;SDS011;42618;51.226;4.910;2023-03-12T15:28:36;26.08;;;2.83;;
56736;SDS011;42618;51.226;4.910;2023-03-12T15:31:11;14.60;;;2.28;;
56736;SDS011;42618;51.226;4.910;2023-03-12T15:33:39;18.17;;;2.63;;
56736;SDS011;42618;51.226;4.910;2023-03-12T15:38:33;16.90;;;1.90;;
56736;SDS011;42618;51.226;4.910;2023-03-12T15:41:02;16.07;;;2.97;;
56736;SDS011;42618;51.226;4.910;2023-03-12T15:43:31;10.32;;;1.20;;
56736;SDS011;42618;51.226;4.910;2023-03-12T15:46:01;18.63;;;2.20;;
56736;SDS011;42618;51.226;4.910;2023-03-12T15:48:30;11.32;;;1.52;;
56736;SDS011;42618;51.226;4.910;2023-03-12T15:50:58;13.63;;;1.98;;
56736;SDS011;42618;51.226;4.910;2023-03-12T15:53:29;12.65;;;2.47;;
56736;SDS011;42618;51.226;4.910;2023-03-12T15:58:27;52.47;;;11.77;;
56736;SDS011;42618;51.226;4.910;2023-03-12T16:01:04;34.60;;;10.27;;
56736;SDS011;42618;51.226;4.910;2023-03-12T16:05:59;27.75;;;9.02;;
56736;SDS011;42618;51.226;4.910;2023-03-12T16:08:33;11.95;;;2.10;;
56736;SDS011;42618;51.226;4.910;2023-03-12T16:11:01;20.50;;;3.15;;
56736;SDS011;42618;51.226;4.910;2023-03-12T16:13:29;20.23;;;5.97;;
56736;SDS011;42618;51.226;4.910;2023-03-12T16:15:56;24.52;;;3.65;;
56736;SDS011;42618;51.226;4.910;2023-03-12T16:18:23;49.35;;;20.48;;
56736;SDS011;42618;51.226;4.910;2023-03-12T16:20:51;35.47;;;9.57;;
56736;SDS011;42618;51.226;4.910;2023-03-12T16:23:18;32.38;;;13.90;;
56736;SDS011;42618;51.226;4.910;2023-03-12T16:25:47;23.17;;;2.53;;
56736;SDS011;42618;51.226;4.910;2023-03-12T16:28:15;16.75;;;1.67;;
56736;SDS011;42618;51.226;4.910;2023-03-12T16:30:42;17.90;;;2.75;;
56736;SDS011;42618;51.226;4.910;2023-03-12T16:33:13;18.67;;;2.60;;
56736;SDS011;42618;51.226;4.910;2023-03-12T16:35:40;25.25;;;3.30;;
56736;SDS011;42618;51.226;4.910;2023-03-12T16:38:07;19.67;;;2.42;;
56736;SDS011;42618;51.226;4.910;2023-03-12T16:40:34;24.60;;;3.45;;
56736;SDS011;42618;51.226;4.910;2023-03-12T16:43:02;21.02;;;2.40;;
56736;SDS011;42618;51.226;4.910;2023-03-12T16:45:33;18.30;;;3.15;;
56736;SDS011;42618;51.226;4.910;2023-03-12T16:48:01;18.73;;;3.03;;
56736;SDS011;42618;51.226;4.910;2023-03-12T16:50:28;11.60;;;2.95;;
56736;SDS011;42618;51.226;4.910;2023-03-12T16:52:54;21.70;;;4.38;;
56736;SDS011;42618;51.226;4.910;2023-03-12T16:55:25;23.00;;;2.60;;
56736;SDS011;42618;51.226;4.910;2023-03-12T16:57:53;16.20;;;2.00;;
56736;SDS011;42618;51.226;4.910;2023-03-12T17:00:21;15.85;;;1.85;;
56736;SDS011;42618;51.226;4.910;2023-03-12T17:02:48;26.35;;;3.00;;
56736;SDS011;42618;51.226;4.910;2023-03-12T17:05:15;26.13;;;2.88;;